Aviation Digital Data Service (ADDS)

Output produced by METARs form (1520 UTC 23 January 2019)
found at http://www.aviationweather.gov/metar/data/
 
METAR text: MMMD 231445Z 12011KT 6SM OVC010 25/22 A2997 RMK SLP153 52013 990 8/5// HZY
Conditions at: MMMD (MERIDA INTL ARPT, MX) observed 1445 UTC 23 January 2019
Temperature: 25.0°C (77°F)
Dewpoint: 22.0°C (72°F) [RH = 83%]
Pressure (altimeter): 29.97 inches Hg (1015.0 mb)
[Sea-level pressure: 1015.3 mb]
Winds: from the ESE (120 degrees) at 13 MPH (11 knots; 5.7 m/s)
Visibility: 6 miles (10 km)
Ceiling: 1000 feet AGL
Clouds: overcast cloud deck at 1000 feet AGL
Weather: no significant weather observed at this time

METAR text: MMMD 231345Z 11008KT 5SM OVC006 23/21 A2997 RMK 8/5// HZY OCNL DROPS
Conditions at: MMMD (MERIDA INTL ARPT, MX) observed 1345 UTC 23 January 2019
Temperature: 23.0°C (73°F)
Dewpoint: 21.0°C (70°F) [RH = 89%]
Pressure (altimeter): 29.97 inches Hg (1015.0 mb)
Winds: from the ESE (110 degrees) at 9 MPH (8 knots; 4.1 m/s)
Visibility: 5 miles ( 8 km)
Ceiling: 600 feet AGL
Clouds: overcast cloud deck at 600 feet AGL
Weather: no significant weather observed at this time

METAR text: MMMD 231249Z 12010KT 6SM BKN005 BKN300 23/21 A2995 RMK 8/508 HZY
Conditions at: MMMD (MERIDA INTL ARPT, MX) observed 1249 UTC 23 January 2019
Temperature: 23.0°C (73°F)
Dewpoint: 21.0°C (70°F) [RH = 89%]
Pressure (altimeter): 29.95 inches Hg (1014.3 mb)
Winds: from the ESE (120 degrees) at 12 MPH (10 knots; 5.1 m/s)
Visibility: 6 miles (10 km)
Ceiling: 500 feet AGL
Clouds: broken clouds at 500 feet AGL
broken clouds at 30000 feet AGL
Weather: no significant weather observed at this time

METAR text: MMMD 231235Z 12009KT 6SM BKN005 BKN300 23/21 A2995 RMK 8/508 HZY
Conditions at: MMMD (MERIDA INTL ARPT, MX) observed 1235 UTC 23 January 2019
Temperature: 23.0°C (73°F)
Dewpoint: 21.0°C (70°F) [RH = 89%]
Pressure (altimeter): 29.95 inches Hg (1014.3 mb)
Winds: from the ESE (120 degrees) at 10 MPH (9 knots; 4.6 m/s)
Visibility: 6 miles (10 km)
Ceiling: 500 feet AGL
Clouds: broken clouds at 500 feet AGL
broken clouds at 30000 feet AGL
Weather: no significant weather observed at this time

METAR text: MMMD 231146Z 11009KT 7SM SCT010 BKN020 BKN300 23/21 A2994 RMK SLP140 57009 991 8/508
Conditions at: MMMD (MERIDA INTL ARPT, MX) observed 1146 UTC 23 January 2019
Temperature: 23.0°C (73°F)
Dewpoint: 21.0°C (70°F) [RH = 89%]
Pressure (altimeter): 29.94 inches Hg (1014.0 mb)
[Sea-level pressure: 1014.0 mb]
Winds: from the ESE (110 degrees) at 10 MPH (9 knots; 4.6 m/s)
Visibility: 7 miles (11 km)
Ceiling: 2000 feet AGL
Clouds: scattered clouds at 1000 feet AGL
broken clouds at 2000 feet AGL
broken clouds at 30000 feet AGL
Weather: no significant weather observed at this time

METAR text: MMMD 231047Z 12013KT 7SM FEW010 BKN020 BKN300 23/21 A2993 RMK 8/508
Conditions at: MMMD (MERIDA INTL ARPT, MX) observed 1047 UTC 23 January 2019
Temperature: 23.0°C (73°F)
Dewpoint: 21.0°C (70°F) [RH = 89%]
Pressure (altimeter): 29.93 inches Hg (1013.6 mb)
Winds: from the ESE (120 degrees) at 15 MPH (13 knots; 6.7 m/s)
Visibility: 7 miles (11 km)
Ceiling: 2000 feet AGL
Clouds: few clouds at 1000 feet AGL
broken clouds at 2000 feet AGL
broken clouds at 30000 feet AGL
Weather: no significant weather observed at this time

METAR text: MMMD 230944Z 12006KT 7SM BKN020 BKN300 23/21 A2994 RMK 8/508
Conditions at: MMMD (MERIDA INTL ARPT, MX) observed 0944 UTC 23 January 2019
Temperature: 23.0°C (73°F)
Dewpoint: 21.0°C (70°F) [RH = 89%]
Pressure (altimeter): 29.94 inches Hg (1014.0 mb)
Winds: from the ESE (120 degrees) at 7 MPH (6 knots; 3.1 m/s)
Visibility: 7 miles (11 km)
Ceiling: 2000 feet AGL
Clouds: broken clouds at 2000 feet AGL
broken clouds at 30000 feet AGL
Weather: no significant weather observed at this time

METAR text: MMMD 230846Z 13005KT 7SM BKN020 BKN300 23/20 A2995 RMK SLP149 57009 992 8/508
Conditions at: MMMD (MERIDA INTL ARPT, MX) observed 0846 UTC 23 January 2019
Temperature: 23.0°C (73°F)
Dewpoint: 20.0°C (68°F) [RH = 83%]
Pressure (altimeter): 29.95 inches Hg (1014.3 mb)
[Sea-level pressure: 1014.9 mb]
Winds: from the SE (130 degrees) at 6 MPH (5 knots; 2.6 m/s)
Visibility: 7 miles (11 km)
Ceiling: 2000 feet AGL
Clouds: broken clouds at 2000 feet AGL
broken clouds at 30000 feet AGL
Weather: no significant weather observed at this time

METAR text: MMMD 230747Z 11008KT 7SM BKN020 BKN300 23/21 A2997 RMK 8/508
Conditions at: MMMD (MERIDA INTL ARPT, MX) observed 0747 UTC 23 January 2019
Temperature: 23.0°C (73°F)
Dewpoint: 21.0°C (70°F) [RH = 89%]
Pressure (altimeter): 29.97 inches Hg (1015.0 mb)
Winds: from the ESE (110 degrees) at 9 MPH (8 knots; 4.1 m/s)
Visibility: 7 miles (11 km)
Ceiling: 2000 feet AGL
Clouds: broken clouds at 2000 feet AGL
broken clouds at 30000 feet AGL
Weather: no significant weather observed at this time

METAR text: MMMD 230647Z 10011KT 7SM SCT020 SCT300 23/20 A2997 RMK 8/508
Conditions at: MMMD (MERIDA INTL ARPT, MX) observed 0647 UTC 23 January 2019
Temperature: 23.0°C (73°F)
Dewpoint: 20.0°C (68°F) [RH = 83%]
Pressure (altimeter): 29.97 inches Hg (1015.0 mb)
Winds: from the E (100 degrees) at 13 MPH (11 knots; 5.7 m/s)
Visibility: 7 miles (11 km)
Ceiling: at least 12,000 feet AGL
Clouds: scattered clouds at 2000 feet AGL
scattered clouds at 30000 feet AGL
Weather: no significant weather observed at this time

METAR text: MMMD 230545Z 09007KT 7SM BKN030 23/20 A2997 RMK SLP158 57012 992 8/500
Conditions at: MMMD (MERIDA INTL ARPT, MX) observed 0545 UTC 23 January 2019
Temperature: 23.0°C (73°F)
Dewpoint: 20.0°C (68°F) [RH = 83%]
Pressure (altimeter): 29.97 inches Hg (1015.0 mb)
[Sea-level pressure: 1015.8 mb]
Winds: from the E (90 degrees) at 8 MPH (7 knots; 3.6 m/s)
Visibility: 7 miles (11 km)
Ceiling: 3000 feet AGL
Clouds: broken clouds at 3000 feet AGL
Weather: no significant weather observed at this time

METAR text: MMMD 230444Z 09008KT 7SM BKN030 24/19 A2999 RMK 8/500
Conditions at: MMMD (MERIDA INTL ARPT, MX) observed 0444 UTC 23 January 2019
Temperature: 24.0°C (75°F)
Dewpoint: 19.0°C (66°F) [RH = 74%]
Pressure (altimeter): 29.99 inches Hg (1015.7 mb)
Winds: from the E (90 degrees) at 9 MPH (8 knots; 4.1 m/s)
Visibility: 7 miles (11 km)
Ceiling: 3000 feet AGL
Clouds: broken clouds at 3000 feet AGL
Weather: no significant weather observed at this time

METAR text: MMMD 230346Z 11008KT 7SM BKN030 24/19 A3001 RMK 8/500
Conditions at: MMMD (MERIDA INTL ARPT, MX) observed 0346 UTC 23 January 2019
Temperature: 24.0°C (75°F)
Dewpoint: 19.0°C (66°F) [RH = 74%]
Pressure (altimeter): 30.01 inches Hg (1016.3 mb)
Winds: from the ESE (110 degrees) at 9 MPH (8 knots; 4.1 m/s)
Visibility: 7 miles (11 km)
Ceiling: 3000 feet AGL
Clouds: broken clouds at 3000 feet AGL
Weather: no significant weather observed at this time

METAR text: MMMD 230242Z 09010KT 7SM SCT030 24/18 A3001 RMK SLP170 52009 987 8/500
Conditions at: MMMD (MERIDA INTL ARPT, MX) observed 0242 UTC 23 January 2019
Temperature: 24.0°C (75°F)
Dewpoint: 18.0°C (64°F) [RH = 69%]
Pressure (altimeter): 30.01 inches Hg (1016.3 mb)
[Sea-level pressure: 1017.0 mb]
Winds: from the E (90 degrees) at 12 MPH (10 knots; 5.1 m/s)
Visibility: 7 miles (11 km)
Ceiling: at least 12,000 feet AGL
Clouds: scattered clouds at 3000 feet AGL
Weather: no significant weather observed at this time

METAR text: MMMD 230141Z 10010KT 7SM SCT030 25/18 A3000 RMK 8/500
Conditions at: MMMD (MERIDA INTL ARPT, MX) observed 0141 UTC 23 January 2019
Temperature: 25.0°C (77°F)
Dewpoint: 18.0°C (64°F) [RH = 65%]
Pressure (altimeter): 30.00 inches Hg (1016.0 mb)
Winds: from the E (100 degrees) at 12 MPH (10 knots; 5.1 m/s)
Visibility: 7 miles (11 km)
Ceiling: at least 12,000 feet AGL
Clouds: scattered clouds at 3000 feet AGL
Weather: no significant weather observed at this time

METAR text: MMMD 230047Z 10010KT 7SM SKC 26/18 A2999 RMK CI
Conditions at: MMMD (MERIDA INTL ARPT, MX) observed 0047 UTC 23 January 2019
Temperature: 26.0°C (79°F)
Dewpoint: 18.0°C (64°F) [RH = 61%]
Pressure (altimeter): 29.99 inches Hg (1015.7 mb)
Winds: from the E (100 degrees) at 12 MPH (10 knots; 5.1 m/s)
Visibility: 7 miles (11 km)
Ceiling: at least 12,000 feet AGL
Clouds: clear skies
Weather: no significant weather observed at this time

METAR text: MMMD 222340Z 11016KT 7SM FEW030 SCT200 27/17 A2998 RMK SLP160 52004 987 8/508
Conditions at: MMMD (MERIDA INTL ARPT, MX) observed 2340 UTC 22 January 2019
Temperature: 27.0°C (81°F)
Dewpoint: 17.0°C (63°F) [RH = 54%]
Pressure (altimeter): 29.98 inches Hg (1015.3 mb)
[Sea-level pressure: 1016.0 mb]
Winds: from the ESE (110 degrees) at 18 MPH (16 knots; 8.2 m/s)
Visibility: 7 miles (11 km)
Ceiling: at least 12,000 feet AGL
Clouds: few clouds at 3000 feet AGL
scattered clouds at 20000 feet AGL
Weather: no significant weather observed at this time

METAR text: MMMD 222242Z 13018KT 7SM SCT030 BKN200 28/16 A2998 RMK 8/508 HZY
Conditions at: MMMD (MERIDA INTL ARPT, MX) observed 2242 UTC 22 January 2019
Temperature: 28.0°C (82°F)
Dewpoint: 16.0°C (61°F) [RH = 48%]
Pressure (altimeter): 29.98 inches Hg (1015.3 mb)
Winds: from the SE (130 degrees) at 21 MPH (18 knots; 9.3 m/s)
Visibility: 7 miles (11 km)
Ceiling: 20000 feet AGL
Clouds: scattered clouds at 3000 feet AGL
broken clouds at 20000 feet AGL
Weather: no significant weather observed at this time

METAR text: MMMD 222143Z 12013KT 7SM BKN030 BKN200 29/16 A2998 RMK 8/508 HZY
Conditions at: MMMD (MERIDA INTL ARPT, MX) observed 2143 UTC 22 January 2019
Temperature: 29.0°C (84°F)
Dewpoint: 16.0°C (61°F) [RH = 45%]
Pressure (altimeter): 29.98 inches Hg (1015.3 mb)
Winds: from the ESE (120 degrees) at 15 MPH (13 knots; 6.7 m/s)
Visibility: 7 miles (11 km)
Ceiling: 3000 feet AGL
Clouds: broken clouds at 3000 feet AGL
broken clouds at 20000 feet AGL
Weather: no significant weather observed at this time

METAR text: MMMD 222046Z 12018KT 7SM BKN030 BKN200 30/15 A2998 RMK SLP157 56032 992 8/508 HZY
Conditions at: MMMD (MERIDA INTL ARPT, MX) observed 2046 UTC 22 January 2019
Temperature: 30.0°C (86°F)
Dewpoint: 15.0°C (59°F) [RH = 40%]
Pressure (altimeter): 29.98 inches Hg (1015.3 mb)
[Sea-level pressure: 1015.7 mb]
Winds: from the ESE (120 degrees) at 21 MPH (18 knots; 9.3 m/s)
Visibility: 7 miles (11 km)
Ceiling: 3000 feet AGL
Clouds: broken clouds at 3000 feet AGL
broken clouds at 20000 feet AGL
Weather: no significant weather observed at this time

METAR text: MMMD 221945Z 11012KT 7SM SCT020 SCT300 30/14 A3000 RMK 8/108
Conditions at: MMMD (MERIDA INTL ARPT, MX) observed 1945 UTC 22 January 2019
Temperature: 30.0°C (86°F)
Dewpoint: 14.0°C (57°F) [RH = 38%]
Pressure (altimeter): 30.00 inches Hg (1016.0 mb)
Winds: from the ESE (110 degrees) at 14 MPH (12 knots; 6.2 m/s)
Visibility: 7 miles (11 km)
Ceiling: at least 12,000 feet AGL
Clouds: scattered clouds at 2000 feet AGL
scattered clouds at 30000 feet AGL
Weather: no significant weather observed at this time

METAR text: MMMD 221845Z 08010G20KT 7SM SCT020 SCT300 29/14 A3004 RMK 8/108
Conditions at: MMMD (MERIDA INTL ARPT, MX) observed 1845 UTC 22 January 2019
Temperature: 29.0°C (84°F)
Dewpoint: 14.0°C (57°F) [RH = 40%]
Pressure (altimeter): 30.04 inches Hg (1017.4 mb)
Winds: from the E (80 degrees) at 12 MPH (10 knots; 5.1 m/s)
gusting to 23 MPH (20 knots; 10.3 m/s)
Visibility: 7 miles (11 km)
Ceiling: at least 12,000 feet AGL
Clouds: scattered clouds at 2000 feet AGL
scattered clouds at 30000 feet AGL
Weather: no significant weather observed at this time

METAR text: MMMD 221744Z 12014KT 7SM SCT020 BKN300 29/14 A3008 RMK SLP188 57009 990 8/108 AC
Conditions at: MMMD (MERIDA INTL ARPT, MX) observed 1744 UTC 22 January 2019
Temperature: 29.0°C (84°F)
Dewpoint: 14.0°C (57°F) [RH = 40%]
Pressure (altimeter): 30.08 inches Hg (1018.7 mb)
[Sea-level pressure: 1018.8 mb]
Winds: from the ESE (120 degrees) at 16 MPH (14 knots; 7.2 m/s)
Visibility: 7 miles (11 km)
Ceiling: 30000 feet AGL
Clouds: scattered clouds at 2000 feet AGL
broken clouds at 30000 feet AGL
Weather: no significant weather observed at this time

METAR text: MMMD 221646Z 10014KT 7SM FEW020 BKN300 26/14 A3010 RMK 8/108
Conditions at: MMMD (MERIDA INTL ARPT, MX) observed 1646 UTC 22 January 2019
Temperature: 26.0°C (79°F)
Dewpoint: 14.0°C (57°F) [RH = 48%]
Pressure (altimeter): 30.10 inches Hg (1019.4 mb)
Winds: from the E (100 degrees) at 16 MPH (14 knots; 7.2 m/s)
Visibility: 7 miles (11 km)
Ceiling: 30000 feet AGL
Clouds: few clouds at 2000 feet AGL
broken clouds at 30000 feet AGL
Weather: no significant weather observed at this time

METAR text: MMMD 221544Z 08010KT 7SM SCT030 BKN300 25/13 A3012 RMK 8/508
Conditions at: MMMD (MERIDA INTL ARPT, MX) observed 1544 UTC 22 January 2019
Temperature: 25.0°C (77°F)
Dewpoint: 13.0°C (55°F) [RH = 47%]
Pressure (altimeter): 30.12 inches Hg (1020.1 mb)
Winds: from the E (80 degrees) at 12 MPH (10 knots; 5.1 m/s)
Visibility: 7 miles (11 km)
Ceiling: 30000 feet AGL
Clouds: scattered clouds at 3000 feet AGL
broken clouds at 30000 feet AGL
Weather: no significant weather observed at this time

METAR text: MMMD 221445Z 09009KT 7SM BKN030 BKN300 23/13 A3011 RMK SLP197 52006 990 8/508 AC
Conditions at: MMMD (MERIDA INTL ARPT, MX) observed 1445 UTC 22 January 2019
Temperature: 23.0°C (73°F)
Dewpoint: 13.0°C (55°F) [RH = 53%]
Pressure (altimeter): 30.11 inches Hg (1019.7 mb)
[Sea-level pressure: 1019.7 mb]
Winds: from the E (90 degrees) at 10 MPH (9 knots; 4.6 m/s)
Visibility: 7 miles (11 km)
Ceiling: 3000 feet AGL
Clouds: broken clouds at 3000 feet AGL
broken clouds at 30000 feet AGL
Weather: no significant weather observed at this time

METAR text: MMMD 221344Z 07009KT 7SM BKN030 BKN300 20/13 A3011 RMK 8/508 HZY
Conditions at: MMMD (MERIDA INTL ARPT, MX) observed 1344 UTC 22 January 2019
Temperature: 20.0°C (68°F)
Dewpoint: 13.0°C (55°F) [RH = 64%]
Pressure (altimeter): 30.11 inches Hg (1019.7 mb)
Winds: from the ENE (70 degrees) at 10 MPH (9 knots; 4.6 m/s)
Visibility: 7 miles (11 km)
Ceiling: 3000 feet AGL
Clouds: broken clouds at 3000 feet AGL
broken clouds at 30000 feet AGL
Weather: no significant weather observed at this time

METAR text: MMMD 221249Z 07007KT 6SM BKN030 18/12 A3010 RMK 8/500 HZY
Conditions at: MMMD (MERIDA INTL ARPT, MX) observed 1249 UTC 22 January 2019
Temperature: 18.0°C (64°F)
Dewpoint: 12.0°C (54°F) [RH = 68%]
Pressure (altimeter): 30.10 inches Hg (1019.4 mb)
Winds: from the ENE (70 degrees) at 8 MPH (7 knots; 3.6 m/s)
Visibility: 6 miles (10 km)
Ceiling: 3000 feet AGL
Clouds: broken clouds at 3000 feet AGL
Weather: no significant weather observed at this time

METAR text: MMMD 221147Z 07006KT 7SM SKC 18/13 A3009 RMK SLP191 57023 987
Conditions at: MMMD (MERIDA INTL ARPT, MX) observed 1147 UTC 22 January 2019
Temperature: 18.0°C (64°F)
Dewpoint: 13.0°C (55°F) [RH = 73%]
Pressure (altimeter): 30.09 inches Hg (1019.0 mb)
[Sea-level pressure: 1019.1 mb]
Winds: from the ENE (70 degrees) at 7 MPH (6 knots; 3.1 m/s)
Visibility: 7 miles (11 km)
Ceiling: at least 12,000 feet AGL
Clouds: clear skies
Weather: no significant weather observed at this time

METAR text: MMMD 221045Z 08005KT 7SM SKC 17/13 A3008
Conditions at: MMMD (MERIDA INTL ARPT, MX) observed 1045 UTC 22 January 2019
Temperature: 17.0°C (63°F)
Dewpoint: 13.0°C (55°F) [RH = 77%]
Pressure (altimeter): 30.08 inches Hg (1018.7 mb)
Winds: from the E (80 degrees) at 6 MPH (5 knots; 2.6 m/s)
Visibility: 7 miles (11 km)
Ceiling: at least 12,000 feet AGL
Clouds: clear skies
Weather: no significant weather observed at this time

METAR text: MMMD 220944Z 09010KT 7SM SKC 17/14 A3009
Conditions at: MMMD (MERIDA INTL ARPT, MX) observed 0944 UTC 22 January 2019
Temperature: 17.0°C (63°F)
Dewpoint: 14.0°C (57°F) [RH = 82%]
Pressure (altimeter): 30.09 inches Hg (1019.0 mb)
Winds: from the E (90 degrees) at 12 MPH (10 knots; 5.1 m/s)
Visibility: 7 miles (11 km)
Ceiling: at least 12,000 feet AGL
Clouds: clear skies
Weather: no significant weather observed at this time

METAR text: MMMD 220844Z 10009KT 7SM SKC 17/14 A3010 RMK SLP214 57005 970
Conditions at: MMMD (MERIDA INTL ARPT, MX) observed 0844 UTC 22 January 2019
Temperature: 17.0°C (63°F)
Dewpoint: 14.0°C (57°F) [RH = 82%]
Pressure (altimeter): 30.10 inches Hg (1019.4 mb)
[Sea-level pressure: 1021.4 mb]
Winds: from the E (100 degrees) at 10 MPH (9 knots; 4.6 m/s)
Visibility: 7 miles (11 km)
Ceiling: at least 12,000 feet AGL
Clouds: clear skies
Weather: no significant weather observed at this time

METAR text: MMMD 220745Z 09007KT 7SM SKC 18/15 A3011
Conditions at: MMMD (MERIDA INTL ARPT, MX) observed 0745 UTC 22 January 2019
Temperature: 18.0°C (64°F)
Dewpoint: 15.0°C (59°F) [RH = 83%]
Pressure (altimeter): 30.11 inches Hg (1019.7 mb)
Winds: from the E (90 degrees) at 8 MPH (7 knots; 3.6 m/s)
Visibility: 7 miles (11 km)
Ceiling: at least 12,000 feet AGL
Clouds: clear skies
Weather: no significant weather observed at this time

METAR text: MMMD 220645Z 08006KT 7SM SKC 18/14 A3013
Conditions at: MMMD (MERIDA INTL ARPT, MX) observed 0645 UTC 22 January 2019
Temperature: 18.0°C (64°F)
Dewpoint: 14.0°C (57°F) [RH = 77%]
Pressure (altimeter): 30.13 inches Hg (1020.4 mb)
Winds: from the E (80 degrees) at 7 MPH (6 knots; 3.1 m/s)
Visibility: 7 miles (11 km)
Ceiling: at least 12,000 feet AGL
Clouds: clear skies
Weather: no significant weather observed at this time

METAR text: MMMD 220545Z 09008KT 7SM SKC 19/15 A3014 RMK SLP219 52012 965
Conditions at: MMMD (MERIDA INTL ARPT, MX) observed 0545 UTC 22 January 2019
Temperature: 19.0°C (66°F)
Dewpoint: 15.0°C (59°F) [RH = 78%]
Pressure (altimeter): 30.14 inches Hg (1020.7 mb)
[Sea-level pressure: 1021.9 mb]
Winds: from the E (90 degrees) at 9 MPH (8 knots; 4.1 m/s)
Visibility: 7 miles (11 km)
Ceiling: at least 12,000 feet AGL
Clouds: clear skies
Weather: no significant weather observed at this time

METAR text: MMMD 220447Z 08004KT 7SM SKC 19/14 A3015
Conditions at: MMMD (MERIDA INTL ARPT, MX) observed 0447 UTC 22 January 2019
Temperature: 19.0°C (66°F)
Dewpoint: 14.0°C (57°F) [RH = 73%]
Pressure (altimeter): 30.15 inches Hg (1021.1 mb)
Winds: from the E (80 degrees) at 5 MPH (4 knots; 2.1 m/s)
Visibility: 7 miles (11 km)
Ceiling: at least 12,000 feet AGL
Clouds: clear skies
Weather: no significant weather observed at this time

METAR text: MMMD 220346Z 08009KT 7SM SKC 20/14 A3015
Conditions at: MMMD (MERIDA INTL ARPT, MX) observed 0346 UTC 22 January 2019
Temperature: 20.0°C (68°F)
Dewpoint: 14.0°C (57°F) [RH = 68%]
Pressure (altimeter): 30.15 inches Hg (1021.1 mb)
Winds: from the E (80 degrees) at 10 MPH (9 knots; 4.6 m/s)
Visibility: 7 miles (11 km)
Ceiling: at least 12,000 feet AGL
Clouds: clear skies
Weather: no significant weather observed at this time

Forecast for: AMD
Text: TAF AMD MMMD 231307Z 2313/2418 12010KT 6SM HZ BKN005 BKN300 TX30/2320Z TN23/2313Z
Forecast period: 1300 to 1500 UTC 23 January 2019
Forecast type: FROM: standard forecast or significant change
Winds: from the ESE (120 degrees) at 12 MPH (10 knots; 5.1 m/s)
Visibility: 6 miles (10 km)
Ceiling: 500 feet AGL
Clouds: broken clouds at 500 feet AGL
broken clouds at 30000 feet AGL
Weather: HZ  (haze)
Text: FM231500 12010KT 6SM HZ BKN015 BKN300
Forecast period: 1500 to 1600 UTC 23 January 2019
Forecast type: FROM: standard forecast or significant change
Winds: from the ESE (120 degrees) at 12 MPH (10 knots; 5.1 m/s)
Visibility: 6 miles (10 km)
Ceiling: 1500 feet AGL
Clouds: broken clouds at 1500 feet AGL
broken clouds at 30000 feet AGL
Weather: HZ  (haze)
Text: BECMG 2316/2317 BKN020
Forecast period: 1600 UTC 23 January 2019 to 0200 UTC 24 January 2019
Forecast type: BECOMING: Conditions expected to become as follows by 1700 UTC 23 January 2019
Winds: from the ESE (120 degrees) at 12 MPH (10 knots; 5.1 m/s)
Visibility: 6 miles (10 km)
Ceiling: 2000 feet AGL
Clouds: broken clouds at 2000 feet AGL
Weather: HZ  (haze)
Text: TEMPO 2322/2402 4SM SHRA
Forecast period: 2200 UTC 23 January 2019 to 0200 UTC 24 January 2019
Forecast type: TEMPORARY: The following changes expected for less than half the time period
Visibility: 4 miles (6 km)
Ceiling: unknown
Clouds: missing
Weather: SHRA  (rain showers)
Text: FM240200 36015KT P6SM BKN020 OVC080
Forecast period: 0200 to 0600 UTC 24 January 2019
Forecast type: FROM: standard forecast or significant change
Winds: from the N (360 degrees) at 17 MPH (15 knots; 7.7 m/s)
Visibility: 6 or more miles 10+ km)
Ceiling: 2000 feet AGL
Clouds: broken clouds at 2000 feet AGL
overcast cloud deck at 8000 feet AGL
Weather: no significant weather forecast for this period
Text: TEMPO 2402/2406 3SM TSRA BKN015CB
Forecast period: 0200 to 0600 UTC 24 January 2019
Forecast type: TEMPORARY: The following changes expected for less than half the time period
Visibility: 3 miles (5 km)
Ceiling: 1500 feet AGL
Clouds: broken clouds at 1500 feet AGL
Weather: TSRA  (rain associated with thunderstorm(s))
Text: FM240600 36015KT 5SM RA BKN020
Forecast period: 0600 to 1400 UTC 24 January 2019
Forecast type: FROM: standard forecast or significant change
Winds: from the N (360 degrees) at 17 MPH (15 knots; 7.7 m/s)
Visibility: 5 miles (8 km)
Ceiling: 2000 feet AGL
Clouds: broken clouds at 2000 feet AGL
Weather: RA  (moderate rain)
Text: FM241400 36010KT P6SM BKN020
Forecast period: 1400 to 1800 UTC 24 January 2019
Forecast type: FROM: standard forecast or significant change
Winds: from the N (360 degrees) at 12 MPH (10 knots; 5.1 m/s)
Visibility: 6 or more miles 10+ km)
Ceiling: 2000 feet AGL
Clouds: broken clouds at 2000 feet AGL
Weather: no significant weather forecast for this period